Time;durP1;ratioP1;P1;durP2;ratioP2;P2;SDS_P1;SDS_P2;PMS_P1;PMS_P2;Temp;Humidity;BMP_temperature;BMP_pressure;BME280_temperature;BME280_humidity;BME280_pressure;Samples;Min_cycle;Max_cycle;Signal;HPM_P1;HPM_P2
2023/10/13 00:00:29;;;;;;;70.38;18.42;;;;;;;;;;5068446;28;20047;-66
2023/10/13 00:03:00;;;;;;;77.32;19.90;;;;;;;;;;5062288;28;20083;-66
2023/10/13 00:05:27;;;;;;;78.80;20.05;;;;;;;;;;5064700;28;20136;-65
2023/10/13 00:07:55;;;;;;;64.32;18.98;;;;;;;;;;5064362;28;20052;-66
2023/10/13 00:10:24;;;;;;;63.28;18.20;;;;;;;;;;5067670;28;20128;-66
2023/10/13 00:12:52;;;;;;;76.13;19.63;;;;;;;;;;5058725;28;20049;-66
2023/10/13 00:15:21;;;;;;;87.20;18.98;;;;;;;;;;5063521;28;20052;-66
2023/10/13 00:17:48;;;;;;;94.88;22.83;;;;;;;;;;5069016;28;20052;-65
2023/10/13 00:20:22;;;;;;;87.72;23.13;;;;;;;;;;5066647;28;20091;-66
2023/10/13 00:22:57;;;;;;;89.55;21.48;;;;;;;;;;5069501;28;20056;-66
2023/10/13 00:25:27;;;;;;;87.28;22.23;;;;;;;;;;5062376;28;20083;-66
2023/10/13 00:27:55;;;;;;;97.43;22.73;;;;;;;;;;5067676;28;20102;-66
2023/10/13 00:30:32;;;;;;;86.40;23.02;;;;;;;;;;5070323;28;20044;-65
2023/10/13 00:33:00;;;;;;;101.43;24.33;;;;;;;;;;5066242;28;20053;-66
2023/10/13 00:35:29;;;;;;;95.65;24.67;;;;;;;;;;5063200;28;20398;-66
2023/10/13 00:37:57;;;;;;;98.88;25.75;;;;;;;;;;5068671;28;20053;-66
2023/10/13 00:45:54;;;;;;;121.70;26.73;;;;;;;;;;5059047;28;20178;-66
2023/10/13 00:48:24;;;;;;;;;;;;;;;;;;5068651;28;20504;-66
2023/10/13 00:50:51;;;;;;;114.60;24.27;;;;;;;;;;5067819;28;19920;-66
2023/10/13 00:53:21;;;;;;;113.80;25.45;;;;;;;;;;5060626;28;20059;-66
2023/10/13 00:55:49;;;;;;;120.68;25.98;;;;;;;;;;5067578;28;20483;-66
2023/10/13 00:58:21;;;;;;;109.75;26.15;;;;;;;;;;5066468;28;20056;-66
2023/10/13 01:00:55;;;;;;;106.30;25.75;;;;;;;;;;5065179;28;20128;-66
2023/10/13 01:03:25;;;;;;;100.72;23.08;;;;;;;;;;5068372;28;20128;-66
2023/10/13 01:05:54;;;;;;;99.93;22.80;;;;;;;;;;5062777;28;20061;-66
2023/10/13 01:08:34;;;;;;;98.00;24.25;;;;;;;;;;5068759;28;20044;-66
2023/10/13 01:11:02;;;;;;;97.85;22.60;;;;;;;;;;5059992;28;20052;-66
2023/10/13 01:13:31;;;;;;;107.18;23.15;;;;;;;;;;5067520;28;20044;-66
2023/10/13 01:15:58;;;;;;;103.00;22.20;;;;;;;;;;5069150;28;20167;-66
2023/10/13 01:18:28;;;;;;;93.78;21.83;;;;;;;;;;5061966;28;20055;-66
2023/10/13 01:20:59;;;;;;;86.57;21.23;;;;;;;;;;5069378;28;20499;-66
2023/10/13 01:23:28;;;;;;;89.57;21.60;;;;;;;;;;5059565;28;20086;-66
2023/10/13 01:25:57;;;;;;;98.00;21.45;;;;;;;;;;5069725;28;20084;-66
2023/10/13 01:28:24;;;;;;;90.22;20.33;;;;;;;;;;5067248;28;20110;-66
2023/10/13 01:30:51;;;;;;;93.25;20.88;;;;;;;;;;5062029;28;20119;-66
2023/10/13 01:33:18;;;;;;;88.03;20.75;;;;;;;;;;5060437;28;20053;-66
2023/10/13 01:35:48;;;;;;;79.95;20.80;;;;;;;;;;5066569;28;20496;-66
2023/10/13 01:38:14;;;;;;;66.50;19.30;;;;;;;;;;5064028;28;20048;-66
2023/10/13 01:40:43;;;;;;;75.47;19.35;;;;;;;;;;5066600;28;20484;-66
2023/10/13 01:43:11;;;;;;;59.78;17.25;;;;;;;;;;5066540;28;20048;-66
2023/10/13 01:45:46;;;;;;;59.55;16.52;;;;;;;;;;5057333;28;20045;-66
2023/10/13 01:48:15;;;;;;;55.47;16.05;;;;;;;;;;5064257;28;20094;-66
2023/10/13 01:50:47;;;;;;;48.70;15.15;;;;;;;;;;5061905;28;20048;-66
2023/10/13 01:53:14;;;;;;;46.30;14.13;;;;;;;;;;5071760;28;20048;-66
2023/10/13 01:55:43;;;;;;;38.65;13.25;;;;;;;;;;5066335;28;20462;-65
2023/10/13 01:58:14;;;;;;;32.90;12.38;;;;;;;;;;5070250;28;20496;-66
2023/10/13 02:00:42;;;;;;;39.00;11.55;;;;;;;;;;5070672;28;20044;-66
2023/10/13 02:03:15;;;;;;;28.02;10.82;;;;;;;;;;5072566;28;20056;-66
2023/10/13 02:05:47;;;;;;;29.27;10.88;;;;;;;;;;5067578;28;20048;-66
2023/10/13 02:08:18;;;;;;;27.80;10.02;;;;;;;;;;5061585;28;20123;-66
2023/10/13 02:10:47;;;;;;;25.35;9.68;;;;;;;;;;5071962;28;20136;-66
2023/10/13 02:13:16;;;;;;;30.63;8.88;;;;;;;;;;5072168;28;20055;-66
2023/10/13 02:15:44;;;;;;;17.73;7.85;;;;;;;;;;5068245;28;20573;-66
2023/10/13 02:18:11;;;;;;;29.75;7.80;;;;;;;;;;5073093;28;20060;-66
2023/10/13 02:20:43;;;;;;;22.38;8.10;;;;;;;;;;5069263;28;20051;-66
2023/10/13 02:23:10;;;;;;;25.00;8.75;;;;;;;;;;5062698;28;20109;-66
2023/10/13 02:25:45;;;;;;;20.15;7.60;;;;;;;;;;5069468;28;20067;-66
2023/10/13 02:28:13;;;;;;;22.45;8.45;;;;;;;;;;5063959;28;20055;-66
2023/10/13 02:30:44;;;;;;;23.40;8.80;;;;;;;;;;5071171;28;20052;-66
2023/10/13 02:33:11;;;;;;;30.02;9.63;;;;;;;;;;5068637;28;20127;-66
2023/10/13 02:35:43;;;;;;;27.65;9.07;;;;;;;;;;5068135;28;20082;-66
2023/10/13 02:38:12;;;;;;;26.65;9.40;;;;;;;;;;5071940;28;20053;-66
2023/10/13 02:40:40;;;;;;;25.98;9.90;;;;;;;;;;5066436;28;20134;-66
2023/10/13 02:43:06;;;;;;;34.20;10.13;;;;;;;;;;5067034;28;20050;-65
2023/10/13 02:45:36;;;;;;;28.02;10.27;;;;;;;;;;5069585;28;20063;-65
2023/10/13 02:48:13;;;;;;;34.33;11.35;;;;;;;;;;5065558;28;20052;-65
2023/10/13 02:50:45;;;;;;;36.15;11.35;;;;;;;;;;5062807;28;20495;-65
2023/10/13 02:53:18;;;;;;;39.30;12.10;;;;;;;;;;5065483;28;20052;-64
2023/10/13 02:55:56;;;;;;;32.58;10.90;;;;;;;;;;5067685;28;20048;-65
2023/10/13 02:58:22;;;;;;;29.80;11.52;;;;;;;;;;5063558;28;20462;-64
2023/10/13 03:00:51;;;;;;;39.25;11.93;;;;;;;;;;5067514;28;20052;-64
2023/10/13 03:03:19;;;;;;;32.28;11.68;;;;;;;;;;5064322;28;20400;-64
2023/10/13 03:05:47;;;;;;;31.88;11.57;;;;;;;;;;5064524;28;20051;-64
2023/10/13 03:08:25;;;;;;;40.38;11.10;;;;;;;;;;5062169;28;20083;-64
2023/10/13 03:10:54;;;;;;;39.88;12.90;;;;;;;;;;5066212;28;20102;-64
2023/10/13 03:13:20;;;;;;;30.17;11.68;;;;;;;;;;5064293;28;20086;-65
2023/10/13 03:15:48;;;;;;;36.58;12.40;;;;;;;;;;5069734;28;20057;-65
2023/10/13 03:18:18;;;;;;;37.03;13.30;;;;;;;;;;5069940;28;20041;-65
2023/10/13 03:20:50;;;;;;;38.95;13.48;;;;;;;;;;5065659;28;20040;-66
2023/10/13 03:23:16;;;;;;;45.42;13.95;;;;;;;;;;5069712;28;20563;-66
2023/10/13 03:25:44;;;;;;;44.00;14.68;;;;;;;;;;5068858;28;20040;-67
2023/10/13 03:28:16;;;;;;;46.13;15.02;;;;;;;;;;5069006;28;20048;-67
2023/10/13 03:30:43;;;;;;;44.88;14.85;;;;;;;;;;5068329;28;20154;-66
2023/10/13 03:33:13;;;;;;;56.45;16.20;;;;;;;;;;5066374;28;20135;-67
2023/10/13 03:35:43;;;;;;;62.13;16.55;;;;;;;;;;5069549;28;20052;-67
2023/10/13 03:38:17;;;;;;;65.22;16.60;;;;;;;;;;5064955;28;20075;-67
2023/10/13 03:43:29;;;;;;;61.25;17.48;;;;;;;;;;5058848;28;20044;-67
2023/10/13 03:46:07;;;;;;;61.40;17.60;;;;;;;;;;5066028;28;20114;-67
2023/10/13 03:48:51;;;;;;;63.60;17.40;;;;;;;;;;5067367;28;20049;-67
2023/10/13 03:51:20;;;;;;;61.65;17.65;;;;;;;;;;5065292;28;20056;-67
2023/10/13 03:53:54;;;;;;;64.28;18.35;;;;;;;;;;5067632;28;20140;-67
2023/10/13 03:56:27;;;;;;;74.43;17.55;;;;;;;;;;5065990;28;20048;-67
2023/10/13 03:58:58;;;;;;;58.55;16.88;;;;;;;;;;5066619;28;20056;-67
2023/10/13 04:01:31;;;;;;;84.55;16.38;;;;;;;;;;5056557;28;20049;-67
2023/10/13 04:04:03;;;;;;;53.45;16.40;;;;;;;;;;5061997;28;20055;-68
2023/10/13 04:13:10;;;;;;;52.67;14.88;;;;;;;;;;5052589;28;20059;-68
2023/10/13 04:17:50;;;;;;;47.15;15.02;;;;;;;;;;5067942;28;20048;-67
2023/10/13 04:23:19;;;;;;;44.35;15.15;;;;;;;;;;5070336;28;20582;-67
2023/10/13 04:28:52;;;;;;;43.75;13.98;;;;;;;;;;5059753;28;20087;-67
2023/10/13 04:34:14;;;;;;;41.08;12.95;;;;;;;;;;5064123;28;20044;-67
2023/10/13 04:36:46;;;;;;;35.38;12.60;;;;;;;;;;5060343;28;20076;-67
2023/10/13 04:39:29;;;;;;;33.25;11.30;;;;;;;;;;5066586;28;20075;-67
2023/10/13 04:42:13;;;;;;;32.50;10.38;;;;;;;;;;5062293;28;20084;-67
2023/10/13 04:44:48;;;;;;;29.33;9.65;;;;;;;;;;5062405;28;20055;-67
2023/10/13 04:47:21;;;;;;;27.20;9.82;;;;;;;;;;5060077;28;20123;-67
2023/10/13 04:49:51;;;;;;;25.25;7.93;;;;;;;;;;5062206;28;20080;-67
2023/10/13 04:58:14;;;;;;;30.77;9.10;;;;;;;;;;4988156;28;20053;-67
2023/10/13 05:03:52;;;;;;;32.70;11.07;;;;;;;;;;5054297;28;20453;-66
2023/10/13 05:45:54;;;;;;;23.25;8.40;;;;;;;;;;4983522;28;20074;-67
2023/10/13 05:48:34;;;;;;;18.90;7.28;;;;;;;;;;4977110;28;20057;-67
2023/10/13 06:29:45;;;;;;;15.05;5.40;;;;;;;;;;5060695;28;20070;-66
2023/10/13 06:32:16;;;;;;;12.10;5.50;;;;;;;;;;5059619;28;20059;-66
2023/10/13 06:34:45;;;;;;;11.52;5.38;;;;;;;;;;5067715;28;20055;-65
2023/10/13 06:37:23;;;;;;;10.20;4.75;;;;;;;;;;5062910;28;20049;-65
2023/10/13 06:39:51;;;;;;;13.98;4.45;;;;;;;;;;5071302;28;20059;-66
2023/10/13 06:42:19;;;;;;;15.13;4.45;;;;;;;;;;5064125;28;20086;-67
2023/10/13 06:44:46;;;;;;;16.95;4.43;;;;;;;;;;5066120;28;20492;-67
2023/10/13 06:47:13;;;;;;;17.70;5.30;;;;;;;;;;5068334;28;20040;-65
2023/10/13 06:49:43;;;;;;;11.82;3.67;;;;;;;;;;5064445;28;20064;-66
2023/10/13 06:52:11;;;;;;;15.20;4.15;;;;;;;;;;5065869;28;20048;-66
2023/10/13 06:54:41;;;;;;;11.40;3.95;;;;;;;;;;5067066;28;20044;-67
2023/10/13 06:57:14;;;;;;;11.77;3.58;;;;;;;;;;5062102;28;20068;-66
2023/10/13 06:59:41;;;;;;;16.48;4.32;;;;;;;;;;5067393;28;20447;-66
2023/10/13 07:02:20;;;;;;;12.80;4.10;;;;;;;;;;5069573;28;20407;-66
2023/10/13 07:04:47;;;;;;;11.75;4.22;;;;;;;;;;5062797;28;20360;-67
2023/10/13 07:07:16;;;;;;;16.05;3.95;;;;;;;;;;5064927;28;20504;-66
2023/10/13 07:09:55;;;;;;;13.32;4.25;;;;;;;;;;5064460;28;20048;-66
2023/10/13 07:12:26;;;;;;;17.10;4.35;;;;;;;;;;5072194;28;20047;-67
2023/10/13 07:14:59;;;;;;;15.95;4.13;;;;;;;;;;5065623;28;20051;-66
2023/10/13 07:17:26;;;;;;;18.63;3.97;;;;;;;;;;5060227;28;20075;-65
2023/10/13 07:19:55;;;;;;;13.68;5.13;;;;;;;;;;5067810;28;20128;-66
2023/10/13 07:22:25;;;;;;;27.73;4.78;;;;;;;;;;5067631;28;20049;-67
2023/10/13 07:24:53;;;;;;;27.15;5.20;;;;;;;;;;5060630;28;20148;-66
2023/10/13 07:27:26;;;;;;;22.40;4.88;;;;;;;;;;5060421;28;20044;-67
2023/10/13 07:29:57;;;;;;;;;;;;;;;;;;5065955;28;20117;-67
2023/10/13 07:32:25;;;;;;;24.95;5.35;;;;;;;;;;5063534;28;19946;-67
2023/10/13 07:35:08;;;;;;;17.95;4.45;;;;;;;;;;5064471;28;20061;-66
2023/10/13 07:37:39;;;;;;;18.47;4.97;;;;;;;;;;5063871;28;20067;-66
2023/10/13 07:40:22;;;;;;;22.20;5.13;;;;;;;;;;5063909;28;20094;-67
2023/10/13 07:42:50;;;;;;;15.55;4.78;;;;;;;;;;5060624;28;20051;-67
2023/10/13 07:45:25;;;;;;;14.20;5.10;;;;;;;;;;5068436;28;20140;-66
2023/10/13 07:47:52;;;;;;;23.75;5.18;;;;;;;;;;5063134;28;20051;-66
2023/10/13 07:50:25;;;;;;;17.90;6.18;;;;;;;;;;5062006;28;20709;-66
2023/10/13 07:53:04;;;;;;;19.63;5.03;;;;;;;;;;5070139;28;20084;-67
2023/10/13 07:55:33;;;;;;;25.67;5.70;;;;;;;;;;5061815;28;20091;-66
2023/10/13 07:58:07;;;;;;;16.23;5.47;;;;;;;;;;5059357;28;20048;-66
2023/10/13 08:03:31;;;;;;;20.52;5.60;;;;;;;;;;5058496;28;20067;-67
2023/10/13 08:06:04;;;;;;;23.65;5.05;;;;;;;;;;5060359;28;20124;-66
2023/10/13 08:08:38;;;;;;;25.70;5.53;;;;;;;;;;5062806;28;20047;-66
2023/10/13 08:11:11;;;;;;;28.10;5.47;;;;;;;;;;5066070;28;20084;-66
2023/10/13 08:13:40;;;;;;;29.20;6.07;;;;;;;;;;5060785;28;20044;-66
2023/10/13 08:16:09;;;;;;;21.42;5.05;;;;;;;;;;5059488;28;20109;-66
2023/10/13 08:18:41;;;;;;;16.13;5.63;;;;;;;;;;5060209;28;20048;-66
2023/10/13 08:21:16;;;;;;;22.80;5.50;;;;;;;;;;5066330;28;20058;-66
2023/10/13 08:24:06;;;;;;;24.30;5.45;;;;;;;;;;5061791;28;20044;-66
2023/10/13 08:32:34;;;;;;;17.15;6.13;;;;;;;;;;5056135;28;20492;-66
2023/10/13 08:35:22;;;;;;;16.85;5.38;;;;;;;;;;5057815;28;20094;-66
2023/10/13 08:38:13;;;;;;;17.30;5.15;;;;;;;;;;5058088;28;20071;-66
2023/10/13 08:41:28;;;;;;;14.07;5.72;;;;;;;;;;5063103;28;20076;-65
2023/10/13 08:43:50;;;;;;;18.08;5.95;;;;;;;;;;5058178;28;20121;-65
2023/10/13 08:46:28;;;;;;;;;;;;;;;;;;5066977;28;20504;-65
2023/10/13 08:49:14;;;;;;;17.50;6.50;;;;;;;;;;5056002;28;19931;-65
2023/10/13 08:51:47;;;;;;;13.20;5.97;;;;;;;;;;5069500;28;20123;-65
2023/10/13 08:54:33;;;;;;;15.30;6.47;;;;;;;;;;5068205;28;20131;-66
2023/10/13 08:57:19;;;;;;;16.35;7.07;;;;;;;;;;5058503;28;20132;-66
2023/10/13 08:59:55;;;;;;;14.52;7.70;;;;;;;;;;5060198;28;20047;-65
2023/10/13 09:02:22;;;;;;;15.18;6.75;;;;;;;;;;5055425;28;20099;-65
2023/10/13 09:04:59;;;;;;;24.02;6.50;;;;;;;;;;5063372;28;20047;-65
2023/10/13 09:07:25;;;;;;;15.80;7.00;;;;;;;;;;5062276;28;20094;-65
2023/10/13 09:10:32;;;;;;;13.63;5.80;;;;;;;;;;5067906;28;20426;-65
2023/10/13 09:13:11;;;;;;;14.13;6.38;;;;;;;;;;5067364;28;20059;-64
2023/10/13 09:16:00;;;;;;;12.52;6.80;;;;;;;;;;5059055;28;20454;-64
2023/10/13 09:18:46;;;;;;;14.82;6.35;;;;;;;;;;5059918;28;20044;-64
2023/10/13 09:26:39;;;;;;;10.00;5.70;;;;;;;;;;5067388;28;20044;-64
2023/10/13 09:29:18;;;;;;;10.55;5.18;;;;;;;;;;5061353;28;20060;-64
2023/10/13 09:31:47;;;;;;;10.52;5.20;;;;;;;;;;5064252;28;20048;-64
2023/10/13 09:34:21;;;;;;;15.07;5.38;;;;;;;;;;5061517;28;20298;-64
2023/10/13 09:36:55;;;;;;;20.48;4.60;;;;;;;;;;5058511;28;20052;-64
2023/10/13 09:39:29;;;;;;;12.32;4.85;;;;;;;;;;5060670;28;20044;-64
2023/10/13 09:41:56;;;;;;;10.45;4.13;;;;;;;;;;5055947;28;20055;-64
2023/10/13 09:44:30;;;;;;;13.52;3.88;;;;;;;;;;5062911;28;20048;-64
2023/10/13 09:47:03;;;;;;;13.43;3.97;;;;;;;;;;5054971;28;20098;-65
2023/10/13 09:49:44;;;;;;;7.90;3.50;;;;;;;;;;5056037;28;20613;-64
2023/10/13 09:52:18;;;;;;;17.73;3.78;;;;;;;;;;5062973;28;20563;-65
2023/10/13 09:54:51;;;;;;;10.40;3.50;;;;;;;;;;5068447;28;20052;-64
2023/10/13 09:57:24;;;;;;;16.07;4.07;;;;;;;;;;5063875;28;20056;-64
2023/10/13 09:59:56;;;;;;;13.75;3.65;;;;;;;;;;5062099;28;20041;-65
2023/10/13 10:02:25;;;;;;;9.20;3.70;;;;;;;;;;5066921;28;20044;-64
2023/10/13 10:04:53;;;;;;;13.45;4.32;;;;;;;;;;5061719;28;20103;-64
2023/10/13 10:07:26;;;;;;;8.55;3.67;;;;;;;;;;5064876;28;20127;-65
2023/10/13 10:09:58;;;;;;;8.57;3.47;;;;;;;;;;5070595;28;20470;-65
2023/10/13 10:12:33;;;;;;;12.68;3.65;;;;;;;;;;5068885;28;20053;-64
2023/10/13 10:15:28;;;;;;;12.63;3.72;;;;;;;;;;5066116;28;20130;-64
2023/10/13 10:17:55;;;;;;;8.02;3.28;;;;;;;;;;5062482;28;20522;-64
2023/10/13 10:20:39;;;;;;;9.52;3.53;;;;;;;;;;5064051;28;20041;-65
2023/10/13 10:23:09;;;;;;;12.25;3.50;;;;;;;;;;5063791;28;20063;-64
2023/10/13 10:25:37;;;;;;;12.75;3.40;;;;;;;;;;5057099;28;20480;-65
2023/10/13 10:28:06;;;;;;;13.88;3.45;;;;;;;;;;5062963;28;20068;-64
2023/10/13 10:30:38;;;;;;;11.60;3.45;;;;;;;;;;5062394;28;20048;-64
2023/10/13 10:33:11;;;;;;;14.10;3.65;;;;;;;;;;5071197;28;20063;-64
2023/10/13 10:35:39;;;;;;;10.30;3.25;;;;;;;;;;5067520;28;20488;-65
2023/10/13 10:38:15;;;;;;;11.57;3.47;;;;;;;;;;5069284;28;20052;-63
2023/10/13 10:40:52;;;;;;;10.77;3.67;;;;;;;;;;5067072;28;20094;-64
2023/10/13 10:43:20;;;;;;;11.40;3.15;;;;;;;;;;5064437;28;20109;-64
2023/10/13 10:45:50;;;;;;;9.68;3.20;;;;;;;;;;5062879;28;20507;-64
2023/10/13 10:48:18;;;;;;;11.13;3.83;;;;;;;;;;5064522;28;20047;-65
2023/10/13 10:50:47;;;;;;;10.35;2.90;;;;;;;;;;5057578;28;20138;-65
2023/10/13 10:53:14;;;;;;;8.23;3.15;;;;;;;;;;5071817;28;20044;-65
2023/10/13 10:55:41;;;;;;;10.25;3.88;;;;;;;;;;5068918;28;20044;-65
2023/10/13 10:58:28;;;;;;;11.52;3.35;;;;;;;;;;5067131;28;20056;-65
2023/10/13 11:01:10;;;;;;;18.35;3.88;;;;;;;;;;5063365;28;20068;-64
2023/10/13 11:03:41;;;;;;;9.05;3.70;;;;;;;;;;5058748;28;20051;-65
2023/10/13 11:06:17;;;;;;;12.23;3.78;;;;;;;;;;5063625;28;20053;-64
2023/10/13 11:08:51;;;;;;;11.95;3.45;;;;;;;;;;5060336;28;20498;-64
2023/10/13 11:11:18;;;;;;;14.82;4.05;;;;;;;;;;5068390;28;20122;-65
2023/10/13 11:13:53;;;;;;;11.15;3.38;;;;;;;;;;5065769;28;20135;-65
2023/10/13 11:16:24;;;;;;;10.65;3.05;;;;;;;;;;5060503;28;20067;-65
2023/10/13 11:19:01;;;;;;;16.77;3.33;;;;;;;;;;5065262;28;20496;-65
2023/10/13 11:21:31;;;;;;;12.20;4.05;;;;;;;;;;5069964;28;20098;-65
2023/10/13 11:24:08;;;;;;;9.10;3.30;;;;;;;;;;5060052;28;20053;-64
2023/10/13 11:26:36;;;;;;;11.73;3.83;;;;;;;;;;5063470;28;20086;-65
2023/10/13 11:29:10;;;;;;;9.50;3.70;;;;;;;;;;5064114;28;20404;-64
2023/10/13 11:31:39;;;;;;;11.13;3.63;;;;;;;;;;5064863;28;20477;-65
2023/10/13 11:34:06;;;;;;;14.27;3.78;;;;;;;;;;5057227;28;20069;-65
2023/10/13 11:36:34;;;;;;;10.75;3.58;;;;;;;;;;5062407;28;20048;-64
2023/10/13 11:39:02;;;;;;;10.20;2.95;;;;;;;;;;5061706;28;20063;-64
2023/10/13 11:41:34;;;;;;;9.38;3.20;;;;;;;;;;5060945;28;20044;-65
2023/10/13 11:46:56;;;;;;;11.45;3.65;;;;;;;;;;5067655;28;20043;-66
2023/10/13 11:49:36;;;;;;;8.57;3.58;;;;;;;;;;5061008;28;20037;-65
2023/10/13 11:52:16;;;;;;;10.77;4.18;;;;;;;;;;5067634;28;20052;-66
2023/10/13 11:54:44;;;;;;;16.67;4.38;;;;;;;;;;5069295;28;20045;-66
2023/10/13 11:57:11;;;;;;;7.60;3.90;;;;;;;;;;5068515;28;20048;-66
2023/10/13 11:59:45;;;;;;;14.40;4.40;;;;;;;;;;5058608;28;20598;-65
2023/10/13 12:04:59;;;;;;;16.27;4.20;;;;;;;;;;5057068;28;19928;-64
2023/10/13 12:07:42;;;;;;;18.42;5.07;;;;;;;;;;5061538;28;20052;-65
2023/10/13 12:10:16;;;;;;;16.35;4.63;;;;;;;;;;5064405;28;20505;-65
2023/10/13 12:12:46;;;;;;;14.52;4.32;;;;;;;;;;5065004;28;20057;-64
2023/10/13 12:15:26;;;;;;;17.80;5.47;;;;;;;;;;5064808;28;20049;-65
2023/10/13 12:17:57;;;;;;;17.45;4.90;;;;;;;;;;5068801;28;20067;-64
2023/10/13 12:20:33;;;;;;;16.10;5.25;;;;;;;;;;5067277;28;20048;-64
2023/10/13 12:23:09;;;;;;;15.35;5.35;;;;;;;;;;5062300;28;20400;-67
2023/10/13 12:25:54;;;;;;;17.67;5.88;;;;;;;;;;5060118;28;20500;-66
2023/10/13 12:28:23;;;;;;;16.00;5.47;;;;;;;;;;5060391;28;20044;-67
2023/10/13 12:30:52;;;;;;;19.20;6.00;;;;;;;;;;5059122;28;20053;-66
2023/10/13 12:33:25;;;;;;;22.02;6.18;;;;;;;;;;5053645;28;20063;-72
2023/10/13 12:36:06;;;;;;;10.82;5.45;;;;;;;;;;5058399;28;20500;-72
2023/10/13 12:48:55;;;;;;;24.77;5.95;;;;;;;;;;5078641;28;20149;-75
2023/10/13 12:49:59;;;;;;;16.88;6.63;;;;;;;;;;5065222;28;20076;-72
2023/10/13 12:52:31;;;;;;;19.55;6.40;;;;;;;;;;5066752;28;20048;-72
2023/10/13 12:55:05;;;;;;;22.58;7.45;;;;;;;;;;5064236;28;20524;-74
2023/10/13 12:57:33;;;;;;;18.80;7.63;;;;;;;;;;5063685;28;20045;-72
2023/10/13 13:00:03;;;;;;;20.50;6.22;;;;;;;;;;5060965;28;20118;-71
2023/10/13 13:02:31;;;;;;;20.45;6.32;;;;;;;;;;5058107;28;20427;-72
2023/10/13 13:05:05;;;;;;;23.13;6.18;;;;;;;;;;5063092;28;20400;-74
2023/10/13 13:07:43;;;;;;;22.60;6.47;;;;;;;;;;5081329;28;20049;-73
2023/10/13 13:10:11;;;;;;;19.65;6.80;;;;;;;;;;5065926;28;20508;-73
2023/10/13 13:12:39;;;;;;;17.58;5.93;;;;;;;;;;5068333;28;20127;-72
2023/10/13 13:15:08;;;;;;;32.45;6.85;;;;;;;;;;5065128;28;20106;-76
2023/10/13 13:17:36;;;;;;;23.70;6.68;;;;;;;;;;5057434;28;20057;-72
2023/10/13 13:20:10;;;;;;;24.38;7.30;;;;;;;;;;5062898;28;20506;-73
2023/10/13 13:22:39;;;;;;;28.00;6.85;;;;;;;;;;5058636;28;20105;-72
2023/10/13 13:25:10;;;;;;;25.77;6.95;;;;;;;;;;5057341;28;20060;-73
2023/10/13 13:27:41;;;;;;;20.52;7.05;;;;;;;;;;5065718;28;20080;-72
2023/10/13 13:30:12;;;;;;;31.90;8.15;;;;;;;;;;5062960;28;20134;-78
2023/10/13 13:32:40;;;;;;;21.42;6.88;;;;;;;;;;5054393;28;20045;-72
2023/10/13 13:35:13;;;;;;;27.85;7.07;;;;;;;;;;5057538;28;20162;-73
2023/10/13 13:37:44;;;;;;;26.55;7.65;;;;;;;;;;5056097;28;20140;-71
2023/10/13 13:40:15;;;;;;;27.63;7.63;;;;;;;;;;5058889;28;20060;-73
2023/10/13 13:42:42;;;;;;;25.95;7.47;;;;;;;;;;5067292;28;20097;-72
2023/10/13 13:45:21;;;;;;;27.45;7.03;;;;;;;;;;5060595;28;20048;-73
2023/10/13 13:47:53;;;;;;;31.80;7.40;;;;;;;;;;5062635;28;20048;-74
2023/10/13 13:50:24;;;;;;;26.00;7.10;;;;;;;;;;5060399;28;20084;-74
2023/10/13 13:52:55;;;;;;;31.63;7.25;;;;;;;;;;5069138;28;20100;-74
2023/10/13 13:55:23;;;;;;;26.15;7.40;;;;;;;;;;5068611;28;20059;-73
2023/10/13 13:57:51;;;;;;;30.80;6.10;;;;;;;;;;5067549;28;20054;-76
2023/10/13 14:00:23;;;;;;;26.42;7.22;;;;;;;;;;5064434;28;20122;-77
2023/10/13 14:02:50;;;;;;;24.83;7.18;;;;;;;;;;5063366;28;20102;-74
2023/10/13 14:05:18;;;;;;;23.15;5.85;;;;;;;;;;5062660;28;20071;-74
2023/10/13 14:07:48;;;;;;;27.52;6.10;;;;;;;;;;5060218;28;20048;-74
2023/10/13 14:10:32;;;;;;;23.05;6.63;;;;;;;;;;5072911;28;20051;-75
2023/10/13 14:13:06;;;;;;;29.15;6.68;;;;;;;;;;5067052;28;20048;-74
2023/10/13 14:15:43;;;;;;;22.05;6.00;;;;;;;;;;5058278;28;20045;-77
2023/10/13 14:18:14;;;;;;;25.73;5.45;;;;;;;;;;5064031;28;20060;-74
2023/10/13 14:20:42;;;;;;;25.92;6.20;;;;;;;;;;5065408;28;20440;-74
2023/10/13 14:23:11;;;;;;;23.48;5.28;;;;;;;;;;5065508;28;20068;-74
2023/10/13 14:25:44;;;;;;;23.95;6.22;;;;;;;;;;5059086;28;20079;-74
2023/10/13 14:28:16;;;;;;;27.08;6.35;;;;;;;;;;5062223;28;20045;-75
2023/10/13 14:30:45;;;;;;;24.08;5.43;;;;;;;;;;5064800;28;20052;-74
2023/10/13 14:33:12;;;;;;;26.05;6.00;;;;;;;;;;5063431;28;20049;-75
2023/10/13 14:35:40;;;;;;;22.63;5.18;;;;;;;;;;5059988;28;20492;-73
2023/10/13 14:38:07;;;;;;;17.60;4.95;;;;;;;;;;5066622;28;20056;-75
2023/10/13 14:40:34;;;;;;;19.27;5.47;;;;;;;;;;5064590;28;20060;-76
2023/10/13 14:43:04;;;;;;;21.98;5.32;;;;;;;;;;5062141;28;20045;-76
2023/10/13 14:45:33;;;;;;;26.83;5.35;;;;;;;;;;5065921;28;20487;-75
2023/10/13 14:48:01;;;;;;;26.23;5.20;;;;;;;;;;5066200;28;20048;-74
2023/10/13 14:50:28;;;;;;;19.42;5.50;;;;;;;;;;5068652;28;20046;-75
2023/10/13 14:52:57;;;;;;;24.60;5.43;;;;;;;;;;5068121;28;20149;-75
2023/10/13 14:55:37;;;;;;;27.95;5.70;;;;;;;;;;5068315;28;20048;-74
2023/10/13 14:58:07;;;;;;;24.50;5.03;;;;;;;;;;5083922;28;20088;-74
2023/10/13 15:00:36;;;;;;;23.23;5.60;;;;;;;;;;5068919;28;20110;-74
2023/10/13 15:03:06;;;;;;;21.90;5.05;;;;;;;;;;5067546;28;20067;-75
2023/10/13 15:05:35;;;;;;;21.67;4.55;;;;;;;;;;5066877;28;20048;-73
2023/10/13 15:08:06;;;;;;;24.27;5.30;;;;;;;;;;5061317;28;20048;-73
2023/10/13 15:10:36;;;;;;;23.92;5.35;;;;;;;;;;5064095;28;20492;-74
2023/10/13 15:13:03;;;;;;;24.65;4.68;;;;;;;;;;5066985;28;20044;-75
2023/10/13 15:15:32;;;;;;;27.65;5.43;;;;;;;;;;5066703;28;20059;-72
2023/10/13 15:18:00;;;;;;;19.98;4.90;;;;;;;;;;5058950;28;20061;-76
2023/10/13 15:20:28;;;;;;;23.98;5.28;;;;;;;;;;5071368;28;20162;-77
2023/10/13 15:22:59;;;;;;;21.90;5.68;;;;;;;;;;5069274;28;20045;-74
2023/10/13 15:25:31;;;;;;;31.52;5.85;;;;;;;;;;5065107;28;20118;-73
2023/10/13 15:28:02;;;;;;;25.52;5.47;;;;;;;;;;5070323;28;20055;-75
2023/10/13 15:30:43;;;;;;;27.52;5.68;;;;;;;;;;5062386;28;20049;-73
2023/10/13 15:33:12;;;;;;;27.40;5.90;;;;;;;;;;5068996;28;20151;-74
2023/10/13 15:35:42;;;;;;;24.35;5.63;;;;;;;;;;5071006;28;20041;-75
2023/10/13 15:38:12;;;;;;;22.83;5.10;;;;;;;;;;5069449;28;20074;-75
2023/10/13 15:40:43;;;;;;;27.45;5.80;;;;;;;;;;5061149;28;20423;-75
2023/10/13 15:43:10;;;;;;;20.17;5.90;;;;;;;;;;5066063;28;20455;-75
2023/10/13 15:45:42;;;;;;;26.75;5.53;;;;;;;;;;5071533;28;20053;-73
2023/10/13 15:48:11;;;;;;;28.50;5.22;;;;;;;;;;5064461;28;21479;-73
2023/10/13 15:50:40;;;;;;;23.77;5.43;;;;;;;;;;5061714;28;20141;-73
2023/10/13 15:53:07;;;;;;;24.95;5.15;;;;;;;;;;5063228;28;20068;-75
2023/10/13 15:55:37;;;;;;;19.35;4.75;;;;;;;;;;5065783;28;20048;-75
2023/10/13 15:58:07;;;;;;;21.38;4.85;;;;;;;;;;5064896;28;20049;-75
2023/10/13 16:00:35;;;;;;;23.63;4.90;;;;;;;;;;5067574;28;20292;-75
2023/10/13 16:03:09;;;;;;;26.30;4.68;;;;;;;;;;5069400;28;20080;-75
2023/10/13 16:05:37;;;;;;;32.88;5.40;;;;;;;;;;5068937;28;20048;-73
2023/10/13 16:08:10;;;;;;;27.92;4.47;;;;;;;;;;5061030;28;20049;-75
2023/10/13 16:10:38;;;;;;;20.60;5.00;;;;;;;;;;5067415;28;20052;-74
2023/10/13 16:13:09;;;;;;;24.23;5.43;;;;;;;;;;5070208;28;20075;-74
2023/10/13 16:15:40;;;;;;;26.17;5.45;;;;;;;;;;5064002;28;20050;-74
2023/10/13 16:18:07;;;;;;;23.42;5.00;;;;;;;;;;5061174;28;20502;-74
2023/10/13 16:20:36;;;;;;;28.85;5.30;;;;;;;;;;5063892;28;20037;-74
2023/10/13 16:23:05;;;;;;;28.40;5.43;;;;;;;;;;5064006;28;20052;-74
2023/10/13 16:25:33;;;;;;;22.65;5.03;;;;;;;;;;5064560;28;20131;-73
2023/10/13 16:28:01;;;;;;;21.95;4.75;;;;;;;;;;5066701;28;20040;-73
2023/10/13 16:30:28;;;;;;;20.83;4.35;;;;;;;;;;5062466;28;20484;-74
2023/10/13 16:32:55;;;;;;;19.15;3.83;;;;;;;;;;5068890;28;20110;-72
2023/10/13 16:35:23;;;;;;;27.83;4.10;;;;;;;;;;5064740;28;20051;-74
2023/10/13 16:37:51;;;;;;;22.30;4.82;;;;;;;;;;5066102;28;20551;-73
2023/10/13 16:40:19;;;;;;;22.40;3.72;;;;;;;;;;5067815;28;20036;-73
2023/10/13 16:42:48;;;;;;;19.98;3.90;;;;;;;;;;5058492;28;20105;-73
2023/10/13 16:45:20;;;;;;;26.80;4.13;;;;;;;;;;5063784;28;20110;-72
2023/10/13 16:47:47;;;;;;;21.65;3.95;;;;;;;;;;5061744;28;20075;-73
2023/10/13 16:50:16;;;;;;;17.30;3.55;;;;;;;;;;5062130;28;20053;-74
2023/10/13 16:52:45;;;;;;;23.63;4.25;;;;;;;;;;5062628;28;20055;-72
2023/10/13 16:55:14;;;;;;;23.33;3.72;;;;;;;;;;5063901;28;20139;-74
2023/10/13 16:57:41;;;;;;;18.65;3.80;;;;;;;;;;5068941;28;20044;-74
2023/10/13 17:00:11;;;;;;;17.20;3.40;;;;;;;;;;5061016;28;20056;-72
2023/10/13 17:02:41;;;;;;;17.05;3.60;;;;;;;;;;5055959;28;20143;-74
2023/10/13 17:05:09;;;;;;;17.92;4.15;;;;;;;;;;5061938;28;20061;-73
2023/10/13 17:07:36;;;;;;;25.23;3.85;;;;;;;;;;5062938;28;20510;-75
2023/10/13 17:10:04;;;;;;;17.45;3.30;;;;;;;;;;5062461;28;20056;-74
2023/10/13 17:12:33;;;;;;;24.77;3.38;;;;;;;;;;5059004;28;20413;-72
2023/10/13 17:15:03;;;;;;;18.92;3.30;;;;;;;;;;5066112;28;20416;-72